sensor_id;sensor_type;location;lat;lon;timestamp;temperature;humidity
18888;DHT22;9576;47.792;9.628;2023-11-19T00:01:26;6.70;99.90
18888;DHT22;9576;47.792;9.628;2023-11-19T00:04:28;6.70;99.90
18888;DHT22;9576;47.792;9.628;2023-11-19T00:07:32;6.70;99.90
18888;DHT22;9576;47.792;9.628;2023-11-19T00:10:33;6.70;99.90
18888;DHT22;9576;47.792;9.628;2023-11-19T00:13:35;6.80;99.90
18888;DHT22;9576;47.792;9.628;2023-11-19T00:16:37;6.80;99.90
18888;DHT22;9576;47.792;9.628;2023-11-19T00:19:39;6.80;99.90
18888;DHT22;9576;47.792;9.628;2023-11-19T00:22:43;6.80;99.90
18888;DHT22;9576;47.792;9.628;2023-11-19T00:25:46;6.80;99.90
18888;DHT22;9576;47.792;9.628;2023-11-19T00:28:48;6.80;99.90
18888;DHT22;9576;47.792;9.628;2023-11-19T00:31:50;6.80;99.90
18888;DHT22;9576;47.792;9.628;2023-11-19T00:34:52;6.80;99.90
18888;DHT22;9576;47.792;9.628;2023-11-19T00:37:55;6.80;99.90
18888;DHT22;9576;47.792;9.628;2023-11-19T00:40:57;6.80;99.90
18888;DHT22;9576;47.792;9.628;2023-11-19T00:43:59;6.80;99.90
18888;DHT22;9576;47.792;9.628;2023-11-19T00:47:01;6.80;99.90
18888;DHT22;9576;47.792;9.628;2023-11-19T00:50:03;6.80;99.90
18888;DHT22;9576;47.792;9.628;2023-11-19T00:53:06;6.70;99.90
18888;DHT22;9576;47.792;9.628;2023-11-19T00:56:10;6.70;99.90
18888;DHT22;9576;47.792;9.628;2023-11-19T00:59:12;6.70;99.90
18888;DHT22;9576;47.792;9.628;2023-11-19T01:02:14;6.70;99.90
18888;DHT22;9576;47.792;9.628;2023-11-19T01:05:16;6.80;99.90
18888;DHT22;9576;47.792;9.628;2023-11-19T01:08:23;6.80;99.90
18888;DHT22;9576;47.792;9.628;2023-11-19T01:11:25;6.80;99.90
18888;DHT22;9576;47.792;9.628;2023-11-19T01:14:27;6.90;99.90
18888;DHT22;9576;47.792;9.628;2023-11-19T01:17:29;6.90;99.90
18888;DHT22;9576;47.792;9.628;2023-11-19T01:20:32;7.00;99.90
18888;DHT22;9576;47.792;9.628;2023-11-19T01:23:36;7.00;99.90
18888;DHT22;9576;47.792;9.628;2023-11-19T01:26:38;7.20;99.90
18888;DHT22;9576;47.792;9.628;2023-11-19T01:29:45;7.20;99.90
18888;DHT22;9576;47.792;9.628;2023-11-19T01:32:47;7.30;99.90
18888;DHT22;9576;47.792;9.628;2023-11-19T01:35:49;7.30;99.90
18888;DHT22;9576;47.792;9.628;2023-11-19T01:38:52;7.30;99.90
18888;DHT22;9576;47.792;9.628;2023-11-19T01:41:54;7.30;99.90
18888;DHT22;9576;47.792;9.628;2023-11-19T01:44:59;7.30;99.90
18888;DHT22;9576;47.792;9.628;2023-11-19T01:48:02;7.20;99.90
18888;DHT22;9576;47.792;9.628;2023-11-19T01:51:04;7.10;99.90
18888;DHT22;9576;47.792;9.628;2023-11-19T01:54:08;7.00;99.90
18888;DHT22;9576;47.792;9.628;2023-11-19T01:57:10;6.90;99.90
18888;DHT22;9576;47.792;9.628;2023-11-19T02:00:12;6.90;99.90
18888;DHT22;9576;47.792;9.628;2023-11-19T02:03:15;6.90;99.90
18888;DHT22;9576;47.792;9.628;2023-11-19T02:06:17;6.90;99.90
18888;DHT22;9576;47.792;9.628;2023-11-19T02:09:20;6.90;99.90
18888;DHT22;9576;47.792;9.628;2023-11-19T02:12:22;6.90;99.90
18888;DHT22;9576;47.792;9.628;2023-11-19T02:15:24;6.90;99.90
18888;DHT22;9576;47.792;9.628;2023-11-19T02:18:26;6.90;99.90
18888;DHT22;9576;47.792;9.628;2023-11-19T02:21:29;6.90;99.90
18888;DHT22;9576;47.792;9.628;2023-11-19T02:24:32;6.80;99.90
18888;DHT22;9576;47.792;9.628;2023-11-19T02:27:41;6.90;99.90
18888;DHT22;9576;47.792;9.628;2023-11-19T02:30:43;6.90;99.90
18888;DHT22;9576;47.792;9.628;2023-11-19T02:33:45;7.00;99.90
18888;DHT22;9576;47.792;9.628;2023-11-19T02:36:47;7.00;99.90
18888;DHT22;9576;47.792;9.628;2023-11-19T02:39:48;7.00;99.90
18888;DHT22;9576;47.792;9.628;2023-11-19T02:42:52;7.10;99.90
18888;DHT22;9576;47.792;9.628;2023-11-19T02:45:54;7.00;99.90
18888;DHT22;9576;47.792;9.628;2023-11-19T02:48:56;7.10;99.90
18888;DHT22;9576;47.792;9.628;2023-11-19T02:51:58;7.10;99.90
18888;DHT22;9576;47.792;9.628;2023-11-19T02:55:00;7.20;99.90
18888;DHT22;9576;47.792;9.628;2023-11-19T02:58:03;7.30;99.90
18888;DHT22;9576;47.792;9.628;2023-11-19T03:01:23;7.30;99.90
18888;DHT22;9576;47.792;9.628;2023-11-19T03:04:29;7.30;99.90
18888;DHT22;9576;47.792;9.628;2023-11-19T03:07:31;7.30;99.90
18888;DHT22;9576;47.792;9.628;2023-11-19T03:10:33;7.30;99.90
18888;DHT22;9576;47.792;9.628;2023-11-19T03:13:36;7.40;99.90
18888;DHT22;9576;47.792;9.628;2023-11-19T03:16:38;7.40;99.90
18888;DHT22;9576;47.792;9.628;2023-11-19T03:19:40;7.40;99.90
18888;DHT22;9576;47.792;9.628;2023-11-19T03:22:42;7.40;99.90
18888;DHT22;9576;47.792;9.628;2023-11-19T03:25:44;7.40;99.90
18888;DHT22;9576;47.792;9.628;2023-11-19T03:28:47;7.50;99.90
18888;DHT22;9576;47.792;9.628;2023-11-19T03:31:49;7.50;99.90
18888;DHT22;9576;47.792;9.628;2023-11-19T03:34:51;7.50;99.90
18888;DHT22;9576;47.792;9.628;2023-11-19T03:37:53;7.60;99.90
18888;DHT22;9576;47.792;9.628;2023-11-19T03:40:55;7.60;99.90
18888;DHT22;9576;47.792;9.628;2023-11-19T03:43:58;7.60;99.90
18888;DHT22;9576;47.792;9.628;2023-11-19T03:47:00;7.60;99.90
18888;DHT22;9576;47.792;9.628;2023-11-19T03:50:02;7.60;99.90
18888;DHT22;9576;47.792;9.628;2023-11-19T03:53:04;7.60;99.90
18888;DHT22;9576;47.792;9.628;2023-11-19T03:56:07;7.60;99.90
18888;DHT22;9576;47.792;9.628;2023-11-19T03:59:11;7.60;99.90
18888;DHT22;9576;47.792;9.628;2023-11-19T04:02:13;7.60;99.90
18888;DHT22;9576;47.792;9.628;2023-11-19T04:05:15;7.60;99.90
18888;DHT22;9576;47.792;9.628;2023-11-19T04:08:19;7.60;99.90
18888;DHT22;9576;47.792;9.628;2023-11-19T04:11:21;7.60;99.90
18888;DHT22;9576;47.792;9.628;2023-11-19T04:14:24;7.70;99.90
18888;DHT22;9576;47.792;9.628;2023-11-19T04:17:26;7.70;99.90
18888;DHT22;9576;47.792;9.628;2023-11-19T04:20:28;7.70;99.90
18888;DHT22;9576;47.792;9.628;2023-11-19T04:23:32;7.70;99.90
18888;DHT22;9576;47.792;9.628;2023-11-19T04:26:33;7.80;99.90
18888;DHT22;9576;47.792;9.628;2023-11-19T04:29:38;7.80;99.90
18888;DHT22;9576;47.792;9.628;2023-11-19T04:32:40;7.90;99.90
18888;DHT22;9576;47.792;9.628;2023-11-19T04:35:42;7.90;99.90
18888;DHT22;9576;47.792;9.628;2023-11-19T04:38:43;7.90;99.90
18888;DHT22;9576;47.792;9.628;2023-11-19T04:41:46;8.00;99.90
18888;DHT22;9576;47.792;9.628;2023-11-19T04:44:50;8.00;99.90
18888;DHT22;9576;47.792;9.628;2023-11-19T04:47:52;8.00;99.90
18888;DHT22;9576;47.792;9.628;2023-11-19T04:50:54;8.00;99.90
18888;DHT22;9576;47.792;9.628;2023-11-19T04:53:56;8.00;99.90
18888;DHT22;9576;47.792;9.628;2023-11-19T04:56:58;8.00;99.90
18888;DHT22;9576;47.792;9.628;2023-11-19T05:00:01;7.90;99.90
18888;DHT22;9576;47.792;9.628;2023-11-19T05:03:05;7.90;99.90
18888;DHT22;9576;47.792;9.628;2023-11-19T05:06:07;8.00;99.90
18888;DHT22;9576;47.792;9.628;2023-11-19T05:09:09;8.00;99.90
18888;DHT22;9576;47.792;9.628;2023-11-19T05:12:13;8.00;99.90
18888;DHT22;9576;47.792;9.628;2023-11-19T05:15:16;8.00;99.90
18888;DHT22;9576;47.792;9.628;2023-11-19T05:18:18;8.00;99.90
18888;DHT22;9576;47.792;9.628;2023-11-19T05:21:20;8.10;99.90
18888;DHT22;9576;47.792;9.628;2023-11-19T05:24:22;8.10;99.90
18888;DHT22;9576;47.792;9.628;2023-11-19T05:27:24;8.10;99.90
18888;DHT22;9576;47.792;9.628;2023-11-19T05:30:28;8.10;99.90
18888;DHT22;9576;47.792;9.628;2023-11-19T05:33:30;8.10;99.90
18888;DHT22;9576;47.792;9.628;2023-11-19T05:36:32;8.10;99.90
18888;DHT22;9576;47.792;9.628;2023-11-19T05:39:34;8.10;99.90
18888;DHT22;9576;47.792;9.628;2023-11-19T05:42:37;8.20;99.90
18888;DHT22;9576;47.792;9.628;2023-11-19T05:45:40;8.20;99.90
18888;DHT22;9576;47.792;9.628;2023-11-19T05:48:42;8.20;99.90
18888;DHT22;9576;47.792;9.628;2023-11-19T05:51:45;8.30;99.90
18888;DHT22;9576;47.792;9.628;2023-11-19T05:54:47;8.30;99.90
18888;DHT22;9576;47.792;9.628;2023-11-19T05:57:52;8.30;99.90
18888;DHT22;9576;47.792;9.628;2023-11-19T06:00:55;8.30;99.90
18888;DHT22;9576;47.792;9.628;2023-11-19T06:03:57;8.40;99.90
18888;DHT22;9576;47.792;9.628;2023-11-19T06:06:59;8.40;99.90
18888;DHT22;9576;47.792;9.628;2023-11-19T06:10:01;8.40;99.90
18888;DHT22;9576;47.792;9.628;2023-11-19T06:13:03;8.40;99.90
18888;DHT22;9576;47.792;9.628;2023-11-19T06:16:07;8.40;99.90
18888;DHT22;9576;47.792;9.628;2023-11-19T06:19:09;8.40;99.90
18888;DHT22;9576;47.792;9.628;2023-11-19T06:22:12;8.40;99.90
18888;DHT22;9576;47.792;9.628;2023-11-19T06:25:14;8.40;99.90
18888;DHT22;9576;47.792;9.628;2023-11-19T06:28:16;8.40;99.90
18888;DHT22;9576;47.792;9.628;2023-11-19T06:31:19;8.50;99.90
18888;DHT22;9576;47.792;9.628;2023-11-19T06:34:21;8.60;99.90
18888;DHT22;9576;47.792;9.628;2023-11-19T06:37:23;8.60;99.90
18888;DHT22;9576;47.792;9.628;2023-11-19T06:40:24;8.70;99.90
18888;DHT22;9576;47.792;9.628;2023-11-19T06:43:26;8.80;99.90
18888;DHT22;9576;47.792;9.628;2023-11-19T06:46:30;8.80;99.90
18888;DHT22;9576;47.792;9.628;2023-11-19T06:49:31;8.80;99.90
18888;DHT22;9576;47.792;9.628;2023-11-19T06:52:33;8.80;99.90
18888;DHT22;9576;47.792;9.628;2023-11-19T06:55:35;8.90;99.90
18888;DHT22;9576;47.792;9.628;2023-11-19T06:58:37;8.90;99.90
18888;DHT22;9576;47.792;9.628;2023-11-19T07:01:41;9.00;99.90
18888;DHT22;9576;47.792;9.628;2023-11-19T07:04:44;9.00;99.90
18888;DHT22;9576;47.792;9.628;2023-11-19T07:07:46;9.10;99.90
18888;DHT22;9576;47.792;9.628;2023-11-19T07:10:48;9.10;99.90
18888;DHT22;9576;47.792;9.628;2023-11-19T07:13:49;9.10;99.90
18888;DHT22;9576;47.792;9.628;2023-11-19T07:16:53;9.20;99.90
18888;DHT22;9576;47.792;9.628;2023-11-19T07:19:56;9.20;99.90
18888;DHT22;9576;47.792;9.628;2023-11-19T07:22:59;9.20;99.90
18888;DHT22;9576;47.792;9.628;2023-11-19T07:26:01;9.20;99.90
18888;DHT22;9576;47.792;9.628;2023-11-19T07:29:05;9.30;99.90
18888;DHT22;9576;47.792;9.628;2023-11-19T07:32:09;9.30;99.90
18888;DHT22;9576;47.792;9.628;2023-11-19T07:35:11;9.40;99.90
18888;DHT22;9576;47.792;9.628;2023-11-19T07:38:13;9.40;99.90
18888;DHT22;9576;47.792;9.628;2023-11-19T07:41:15;9.50;99.90
18888;DHT22;9576;47.792;9.628;2023-11-19T07:44:17;9.50;99.90
18888;DHT22;9576;47.792;9.628;2023-11-19T07:47:20;9.50;99.90
18888;DHT22;9576;47.792;9.628;2023-11-19T07:50:23;9.60;99.90
18888;DHT22;9576;47.792;9.628;2023-11-19T07:53:25;9.70;99.90
18888;DHT22;9576;47.792;9.628;2023-11-19T07:56:27;9.70;99.90
18888;DHT22;9576;47.792;9.628;2023-11-19T07:59:29;9.80;99.90
18888;DHT22;9576;47.792;9.628;2023-11-19T08:02:32;9.80;99.90
18888;DHT22;9576;47.792;9.628;2023-11-19T08:05:34;9.80;99.90
18888;DHT22;9576;47.792;9.628;2023-11-19T08:08:36;9.90;99.90
18888;DHT22;9576;47.792;9.628;2023-11-19T08:11:39;9.90;99.90
18888;DHT22;9576;47.792;9.628;2023-11-19T08:14:41;9.90;99.90
18888;DHT22;9576;47.792;9.628;2023-11-19T08:17:45;9.90;99.90
18888;DHT22;9576;47.792;9.628;2023-11-19T08:20:47;9.90;99.90
18888;DHT22;9576;47.792;9.628;2023-11-19T08:23:53;10.00;99.90
18888;DHT22;9576;47.792;9.628;2023-11-19T08:26:54;10.00;99.90
18888;DHT22;9576;47.792;9.628;2023-11-19T08:29:56;10.00;99.90
18888;DHT22;9576;47.792;9.628;2023-11-19T08:33:00;10.00;99.90
18888;DHT22;9576;47.792;9.628;2023-11-19T08:36:03;9.90;99.90
18888;DHT22;9576;47.792;9.628;2023-11-19T08:39:05;9.90;99.90
18888;DHT22;9576;47.792;9.628;2023-11-19T08:42:09;9.90;99.90
18888;DHT22;9576;47.792;9.628;2023-11-19T08:45:10;10.00;99.90
18888;DHT22;9576;47.792;9.628;2023-11-19T08:48:14;10.00;99.90
18888;DHT22;9576;47.792;9.628;2023-11-19T08:51:15;10.00;99.90
18888;DHT22;9576;47.792;9.628;2023-11-19T08:54:17;10.00;99.90
18888;DHT22;9576;47.792;9.628;2023-11-19T08:57:20;10.00;99.90
18888;DHT22;9576;47.792;9.628;2023-11-19T09:00:22;10.00;99.90
18888;DHT22;9576;47.792;9.628;2023-11-19T09:03:25;10.00;99.90
18888;DHT22;9576;47.792;9.628;2023-11-19T09:06:27;10.10;99.90
18888;DHT22;9576;47.792;9.628;2023-11-19T09:09:29;10.20;99.90
18888;DHT22;9576;47.792;9.628;2023-11-19T09:12:31;10.30;99.90
18888;DHT22;9576;47.792;9.628;2023-11-19T09:15:33;10.30;99.90
18888;DHT22;9576;47.792;9.628;2023-11-19T09:18:36;10.40;99.90
18888;DHT22;9576;47.792;9.628;2023-11-19T09:21:38;10.50;99.90
18888;DHT22;9576;47.792;9.628;2023-11-19T09:24:40;10.50;99.90
18888;DHT22;9576;47.792;9.628;2023-11-19T09:27:44;10.60;99.90
18888;DHT22;9576;47.792;9.628;2023-11-19T09:30:46;10.70;99.90
18888;DHT22;9576;47.792;9.628;2023-11-19T09:33:49;10.70;99.90
18888;DHT22;9576;47.792;9.628;2023-11-19T09:36:51;10.80;99.90
18888;DHT22;9576;47.792;9.628;2023-11-19T09:39:53;10.80;99.90
18888;DHT22;9576;47.792;9.628;2023-11-19T09:42:54;10.80;99.90
18888;DHT22;9576;47.792;9.628;2023-11-19T09:45:56;10.80;99.90
18888;DHT22;9576;47.792;9.628;2023-11-19T09:49:03;10.90;99.90
18888;DHT22;9576;47.792;9.628;2023-11-19T09:52:07;10.90;99.90
18888;DHT22;9576;47.792;9.628;2023-11-19T09:55:09;10.90;99.90
18888;DHT22;9576;47.792;9.628;2023-11-19T09:58:11;11.00;99.90
18888;DHT22;9576;47.792;9.628;2023-11-19T10:01:14;11.00;99.90
18888;DHT22;9576;47.792;9.628;2023-11-19T10:04:18;11.10;99.90
18888;DHT22;9576;47.792;9.628;2023-11-19T10:07:20;11.10;99.90
18888;DHT22;9576;47.792;9.628;2023-11-19T10:10:22;11.10;99.90
18888;DHT22;9576;47.792;9.628;2023-11-19T10:13:25;11.10;99.90
18888;DHT22;9576;47.792;9.628;2023-11-19T10:16:28;11.00;99.90
18888;DHT22;9576;47.792;9.628;2023-11-19T10:19:31;11.00;99.90
18888;DHT22;9576;47.792;9.628;2023-11-19T10:22:36;11.00;99.90
18888;DHT22;9576;47.792;9.628;2023-11-19T10:25:38;11.10;99.90
18888;DHT22;9576;47.792;9.628;2023-11-19T10:28:40;11.20;99.90
18888;DHT22;9576;47.792;9.628;2023-11-19T10:31:48;11.30;99.90
18888;DHT22;9576;47.792;9.628;2023-11-19T10:35:07;11.40;99.90
18888;DHT22;9576;47.792;9.628;2023-11-19T10:38:13;11.50;99.90
18888;DHT22;9576;47.792;9.628;2023-11-19T10:41:26;11.50;99.90
18888;DHT22;9576;47.792;9.628;2023-11-19T10:44:30;11.60;99.90
18888;DHT22;9576;47.792;9.628;2023-11-19T10:47:34;11.60;99.90
18888;DHT22;9576;47.792;9.628;2023-11-19T10:50:39;11.60;99.90
18888;DHT22;9576;47.792;9.628;2023-11-19T10:53:41;11.60;99.90
18888;DHT22;9576;47.792;9.628;2023-11-19T10:56:45;11.60;99.90
18888;DHT22;9576;47.792;9.628;2023-11-19T10:59:49;11.60;99.90
18888;DHT22;9576;47.792;9.628;2023-11-19T11:02:54;11.60;99.90
18888;DHT22;9576;47.792;9.628;2023-11-19T11:05:58;11.60;99.90
18888;DHT22;9576;47.792;9.628;2023-11-19T11:09:00;11.50;99.90
18888;DHT22;9576;47.792;9.628;2023-11-19T11:12:02;11.50;99.90
18888;DHT22;9576;47.792;9.628;2023-11-19T11:15:05;11.50;99.90
18888;DHT22;9576;47.792;9.628;2023-11-19T11:18:08;11.50;99.90
18888;DHT22;9576;47.792;9.628;2023-11-19T11:21:12;11.50;99.90
18888;DHT22;9576;47.792;9.628;2023-11-19T11:24:29;11.50;99.90
18888;DHT22;9576;47.792;9.628;2023-11-19T11:27:41;11.50;99.90
18888;DHT22;9576;47.792;9.628;2023-11-19T11:30:55;11.50;99.90
18888;DHT22;9576;47.792;9.628;2023-11-19T11:34:09;11.50;99.90
18888;DHT22;9576;47.792;9.628;2023-11-19T11:37:17;11.50;99.90
18888;DHT22;9576;47.792;9.628;2023-11-19T11:40:19;11.50;99.90
18888;DHT22;9576;47.792;9.628;2023-11-19T11:46:53;11.60;99.90
18888;DHT22;9576;47.792;9.628;2023-11-19T11:49:55;11.60;99.90
18888;DHT22;9576;47.792;9.628;2023-11-19T11:53:15;11.70;99.90
18888;DHT22;9576;47.792;9.628;2023-11-19T11:56:17;11.70;99.90
18888;DHT22;9576;47.792;9.628;2023-11-19T11:59:18;11.70;99.90
18888;DHT22;9576;47.792;9.628;2023-11-19T12:02:22;11.80;99.90
18888;DHT22;9576;47.792;9.628;2023-11-19T12:05:24;11.80;99.90
18888;DHT22;9576;47.792;9.628;2023-11-19T12:08:28;11.90;99.90
18888;DHT22;9576;47.792;9.628;2023-11-19T12:11:30;11.90;99.90
18888;DHT22;9576;47.792;9.628;2023-11-19T12:18:10;12.10;99.90
18888;DHT22;9576;47.792;9.628;2023-11-19T12:21:11;12.10;99.90
18888;DHT22;9576;47.792;9.628;2023-11-19T12:24:30;12.10;99.90
18888;DHT22;9576;47.792;9.628;2023-11-19T12:27:32;12.00;99.90
18888;DHT22;9576;47.792;9.628;2023-11-19T12:30:35;12.00;99.90
18888;DHT22;9576;47.792;9.628;2023-11-19T12:33:37;12.00;99.90
18888;DHT22;9576;47.792;9.628;2023-11-19T12:36:39;12.00;99.90
18888;DHT22;9576;47.792;9.628;2023-11-19T12:39:44;12.10;99.90
18888;DHT22;9576;47.792;9.628;2023-11-19T12:42:46;12.20;99.90
18888;DHT22;9576;47.792;9.628;2023-11-19T12:45:48;12.20;99.90
18888;DHT22;9576;47.792;9.628;2023-11-19T12:48:50;12.30;99.90
18888;DHT22;9576;47.792;9.628;2023-11-19T12:51:52;12.30;99.90
18888;DHT22;9576;47.792;9.628;2023-11-19T12:54:55;12.30;99.90
18888;DHT22;9576;47.792;9.628;2023-11-19T12:57:58;12.30;99.90
18888;DHT22;9576;47.792;9.628;2023-11-19T13:01:00;12.30;99.90
18888;DHT22;9576;47.792;9.628;2023-11-19T13:04:15;12.30;99.90
18888;DHT22;9576;47.792;9.628;2023-11-19T13:07:20;12.30;99.90
18888;DHT22;9576;47.792;9.628;2023-11-19T13:10:23;12.30;99.90
18888;DHT22;9576;47.792;9.628;2023-11-19T13:13:25;12.30;99.90
18888;DHT22;9576;47.792;9.628;2023-11-19T13:16:27;12.20;99.90
18888;DHT22;9576;47.792;9.628;2023-11-19T13:19:29;12.20;99.90
18888;DHT22;9576;47.792;9.628;2023-11-19T13:22:31;12.20;99.90
18888;DHT22;9576;47.792;9.628;2023-11-19T13:25:34;12.20;99.90
18888;DHT22;9576;47.792;9.628;2023-11-19T13:28:36;12.20;99.90
18888;DHT22;9576;47.792;9.628;2023-11-19T13:31:38;12.20;99.90
18888;DHT22;9576;47.792;9.628;2023-11-19T13:34:40;12.20;99.90
18888;DHT22;9576;47.792;9.628;2023-11-19T13:37:41;12.20;99.90
18888;DHT22;9576;47.792;9.628;2023-11-19T13:40:45;12.20;99.90
18888;DHT22;9576;47.792;9.628;2023-11-19T13:43:46;12.20;99.90
18888;DHT22;9576;47.792;9.628;2023-11-19T13:46:48;12.30;99.90
18888;DHT22;9576;47.792;9.628;2023-11-19T13:49:50;12.20;99.90
18888;DHT22;9576;47.792;9.628;2023-11-19T13:52:53;12.30;99.90
18888;DHT22;9576;47.792;9.628;2023-11-19T13:55:56;12.20;99.90
18888;DHT22;9576;47.792;9.628;2023-11-19T13:58:58;12.30;99.90
18888;DHT22;9576;47.792;9.628;2023-11-19T14:01:59;12.40;99.90
18888;DHT22;9576;47.792;9.628;2023-11-19T14:05:02;12.40;99.90
18888;DHT22;9576;47.792;9.628;2023-11-19T14:08:04;12.40;99.90
18888;DHT22;9576;47.792;9.628;2023-11-19T14:11:13;12.40;99.90
18888;DHT22;9576;47.792;9.628;2023-11-19T14:14:14;12.30;99.90
18888;DHT22;9576;47.792;9.628;2023-11-19T14:17:16;12.30;99.90
18888;DHT22;9576;47.792;9.628;2023-11-19T14:20:19;12.20;99.90
18888;DHT22;9576;47.792;9.628;2023-11-19T14:23:21;12.20;99.90
18888;DHT22;9576;47.792;9.628;2023-11-19T14:26:24;12.20;99.90
18888;DHT22;9576;47.792;9.628;2023-11-19T14:29:26;12.20;99.90
18888;DHT22;9576;47.792;9.628;2023-11-19T14:32:28;12.20;99.90
18888;DHT22;9576;47.792;9.628;2023-11-19T14:35:30;12.20;99.90
18888;DHT22;9576;47.792;9.628;2023-11-19T14:38:33;12.20;99.90
18888;DHT22;9576;47.792;9.628;2023-11-19T14:41:36;12.10;99.90
18888;DHT22;9576;47.792;9.628;2023-11-19T14:44:39;12.10;99.90
18888;DHT22;9576;47.792;9.628;2023-11-19T14:47:41;12.20;99.90
18888;DHT22;9576;47.792;9.628;2023-11-19T14:50:42;12.10;99.90
18888;DHT22;9576;47.792;9.628;2023-11-19T14:53:45;12.10;99.90
18888;DHT22;9576;47.792;9.628;2023-11-19T14:56:48;12.10;99.90
18888;DHT22;9576;47.792;9.628;2023-11-19T14:59:50;12.00;99.90
18888;DHT22;9576;47.792;9.628;2023-11-19T15:02:51;12.00;99.90
18888;DHT22;9576;47.792;9.628;2023-11-19T15:05:53;11.90;99.90
18888;DHT22;9576;47.792;9.628;2023-11-19T15:08:55;11.90;99.90
18888;DHT22;9576;47.792;9.628;2023-11-19T15:11:58;11.80;99.90
18888;DHT22;9576;47.792;9.628;2023-11-19T15:15:00;11.80;99.90
18888;DHT22;9576;47.792;9.628;2023-11-19T15:18:03;11.70;99.90
18888;DHT22;9576;47.792;9.628;2023-11-19T15:21:05;11.60;99.90
18888;DHT22;9576;47.792;9.628;2023-11-19T15:24:08;11.60;99.90
18888;DHT22;9576;47.792;9.628;2023-11-19T15:27:12;11.50;99.90
18888;DHT22;9576;47.792;9.628;2023-11-19T15:30:14;11.50;99.90
18888;DHT22;9576;47.792;9.628;2023-11-19T15:33:17;11.50;99.90
18888;DHT22;9576;47.792;9.628;2023-11-19T15:36:19;11.40;99.90
18888;DHT22;9576;47.792;9.628;2023-11-19T15:39:20;11.40;99.90
18888;DHT22;9576;47.792;9.628;2023-11-19T15:42:24;11.30;99.90
18888;DHT22;9576;47.792;9.628;2023-11-19T15:45:25;11.30;99.90
18888;DHT22;9576;47.792;9.628;2023-11-19T15:48:27;11.30;99.90
18888;DHT22;9576;47.792;9.628;2023-11-19T15:51:29;11.30;99.90
18888;DHT22;9576;47.792;9.628;2023-11-19T15:54:32;11.20;99.90
18888;DHT22;9576;47.792;9.628;2023-11-19T15:57:36;11.20;99.90
18888;DHT22;9576;47.792;9.628;2023-11-19T16:00:38;11.10;99.90
18888;DHT22;9576;47.792;9.628;2023-11-19T16:03:41;11.00;99.90
18888;DHT22;9576;47.792;9.628;2023-11-19T16:06:43;11.00;99.90
18888;DHT22;9576;47.792;9.628;2023-11-19T16:09:45;11.00;99.90
18888;DHT22;9576;47.792;9.628;2023-11-19T16:12:48;10.90;99.90
18888;DHT22;9576;47.792;9.628;2023-11-19T16:15:50;10.90;99.90
18888;DHT22;9576;47.792;9.628;2023-11-19T16:18:52;10.90;99.90
18888;DHT22;9576;47.792;9.628;2023-11-19T16:21:54;10.90;99.90
18888;DHT22;9576;47.792;9.628;2023-11-19T16:24:56;10.80;99.90
18888;DHT22;9576;47.792;9.628;2023-11-19T16:27:59;10.90;99.90
18888;DHT22;9576;47.792;9.628;2023-11-19T16:31:01;10.90;99.90
18888;DHT22;9576;47.792;9.628;2023-11-19T16:34:02;10.90;99.90
18888;DHT22;9576;47.792;9.628;2023-11-19T16:37:05;11.00;99.90
18888;DHT22;9576;47.792;9.628;2023-11-19T16:40:08;10.90;99.90
18888;DHT22;9576;47.792;9.628;2023-11-19T16:43:13;10.90;99.90
18888;DHT22;9576;47.792;9.628;2023-11-19T16:46:15;10.90;99.90
18888;DHT22;9576;47.792;9.628;2023-11-19T16:49:17;10.90;99.90
18888;DHT22;9576;47.792;9.628;2023-11-19T16:52:19;10.80;99.90
18888;DHT22;9576;47.792;9.628;2023-11-19T16:55:22;10.80;99.90
18888;DHT22;9576;47.792;9.628;2023-11-19T16:58:27;10.80;99.90
18888;DHT22;9576;47.792;9.628;2023-11-19T17:01:29;10.80;99.90
18888;DHT22;9576;47.792;9.628;2023-11-19T17:04:31;10.70;99.90
18888;DHT22;9576;47.792;9.628;2023-11-19T17:07:32;10.70;99.90
18888;DHT22;9576;47.792;9.628;2023-11-19T17:10:34;10.70;99.90
18888;DHT22;9576;47.792;9.628;2023-11-19T17:13:38;10.60;99.90
18888;DHT22;9576;47.792;9.628;2023-11-19T17:16:39;10.60;99.90
18888;DHT22;9576;47.792;9.628;2023-11-19T17:19:41;10.50;99.90
18888;DHT22;9576;47.792;9.628;2023-11-19T17:22:43;10.50;99.90
18888;DHT22;9576;47.792;9.628;2023-11-19T17:25:45;10.40;99.90
18888;DHT22;9576;47.792;9.628;2023-11-19T17:28:48;10.40;99.90
18888;DHT22;9576;47.792;9.628;2023-11-19T17:31:50;10.40;99.90
18888;DHT22;9576;47.792;9.628;2023-11-19T17:34:52;10.40;99.90
18888;DHT22;9576;47.792;9.628;2023-11-19T17:37:54;10.40;99.90
18888;DHT22;9576;47.792;9.628;2023-11-19T17:40:56;10.50;99.90
18888;DHT22;9576;47.792;9.628;2023-11-19T17:43:59;10.40;99.90
18888;DHT22;9576;47.792;9.628;2023-11-19T17:47:01;10.40;99.90
18888;DHT22;9576;47.792;9.628;2023-11-19T17:50:03;10.40;99.90
18888;DHT22;9576;47.792;9.628;2023-11-19T17:53:05;10.30;99.90
18888;DHT22;9576;47.792;9.628;2023-11-19T17:56:08;10.30;99.90
18888;DHT22;9576;47.792;9.628;2023-11-19T17:59:11;10.20;99.90
18888;DHT22;9576;47.792;9.628;2023-11-19T18:02:13;10.20;99.90
18888;DHT22;9576;47.792;9.628;2023-11-19T18:05:15;10.20;99.90
18888;DHT22;9576;47.792;9.628;2023-11-19T18:08:17;10.20;99.90
18888;DHT22;9576;47.792;9.628;2023-11-19T18:11:22;10.20;99.90
18888;DHT22;9576;47.792;9.628;2023-11-19T18:14:25;10.20;99.90
18888;DHT22;9576;47.792;9.628;2023-11-19T18:17:27;10.20;99.90
18888;DHT22;9576;47.792;9.628;2023-11-19T18:20:29;10.20;99.90
18888;DHT22;9576;47.792;9.628;2023-11-19T18:23:31;10.20;99.90
18888;DHT22;9576;47.792;9.628;2023-11-19T18:26:33;10.30;99.90
18888;DHT22;9576;47.792;9.628;2023-11-19T18:29:36;10.30;99.90
18888;DHT22;9576;47.792;9.628;2023-11-19T18:32:40;10.40;99.90
18888;DHT22;9576;47.792;9.628;2023-11-19T18:35:43;10.40;99.90
18888;DHT22;9576;47.792;9.628;2023-11-19T18:38:44;10.40;99.90
18888;DHT22;9576;47.792;9.628;2023-11-19T18:41:46;10.30;99.90
18888;DHT22;9576;47.792;9.628;2023-11-19T18:44:49;10.40;99.90
18888;DHT22;9576;47.792;9.628;2023-11-19T18:47:51;10.40;99.90
18888;DHT22;9576;47.792;9.628;2023-11-19T18:50:53;10.50;99.90
18888;DHT22;9576;47.792;9.628;2023-11-19T18:53:55;10.50;99.90
18888;DHT22;9576;47.792;9.628;2023-11-19T18:56:58;10.50;99.90
18888;DHT22;9576;47.792;9.628;2023-11-19T19:00:01;10.50;99.90
18888;DHT22;9576;47.792;9.628;2023-11-19T19:03:07;10.60;99.90
18888;DHT22;9576;47.792;9.628;2023-11-19T19:06:12;10.70;99.90
18888;DHT22;9576;47.792;9.628;2023-11-19T19:09:15;10.70;99.90
18888;DHT22;9576;47.792;9.628;2023-11-19T19:12:18;10.80;99.90
18888;DHT22;9576;47.792;9.628;2023-11-19T19:15:22;10.80;99.90
18888;DHT22;9576;47.792;9.628;2023-11-19T19:18:26;10.90;99.90
18888;DHT22;9576;47.792;9.628;2023-11-19T19:21:29;10.90;99.90
18888;DHT22;9576;47.792;9.628;2023-11-19T19:24:31;10.90;99.90
18888;DHT22;9576;47.792;9.628;2023-11-19T19:27:33;10.90;99.90
18888;DHT22;9576;47.792;9.628;2023-11-19T19:30:36;11.00;99.90
18888;DHT22;9576;47.792;9.628;2023-11-19T19:33:38;11.00;99.90
18888;DHT22;9576;47.792;9.628;2023-11-19T19:36:39;11.00;99.90
18888;DHT22;9576;47.792;9.628;2023-11-19T19:39:41;11.00;99.90
18888;DHT22;9576;47.792;9.628;2023-11-19T19:42:43;11.00;99.90
18888;DHT22;9576;47.792;9.628;2023-11-19T19:45:46;11.00;99.90
18888;DHT22;9576;47.792;9.628;2023-11-19T19:48:48;11.00;99.90